sensor_id;sensor_type;location;lat;lon;timestamp;P1;durP1;ratioP1;P2;durP2;ratioP2
22606;SDS011;11470;20.968;105.834;2023-07-31T00:04:22;21.73;;;13.45;;
22606;SDS011;11470;20.968;105.834;2023-07-31T00:09:28;18.35;;;12.93;;
22606;SDS011;11470;20.968;105.834;2023-07-31T00:14:34;23.48;;;14.52;;
22606;SDS011;11470;20.968;105.834;2023-07-31T00:19:40;18.33;;;12.70;;
22606;SDS011;11470;20.968;105.834;2023-07-31T00:24:46;18.40;;;12.43;;
22606;SDS011;11470;20.968;105.834;2023-07-31T00:29:55;16.35;;;12.75;;
22606;SDS011;11470;20.968;105.834;2023-07-31T00:35:01;17.38;;;11.88;;
22606;SDS011;11470;20.968;105.834;2023-07-31T00:40:08;22.48;;;16.52;;
22606;SDS011;11470;20.968;105.834;2023-07-31T00:45:14;20.58;;;14.60;;
22606;SDS011;11470;20.968;105.834;2023-07-31T00:50:24;15.32;;;10.13;;
22606;SDS011;11470;20.968;105.834;2023-07-31T00:55:34;13.40;;;9.73;;
22606;SDS011;11470;20.968;105.834;2023-07-31T01:00:41;12.00;;;9.20;;
22606;SDS011;11470;20.968;105.834;2023-07-31T01:05:56;12.57;;;8.40;;
22606;SDS011;11470;20.968;105.834;2023-07-31T01:11:17;11.00;;;8.70;;
22606;SDS011;11470;20.968;105.834;2023-07-31T01:16:30;14.63;;;9.88;;
22606;SDS011;11470;20.968;105.834;2023-07-31T01:27:10;11.68;;;7.97;;
22606;SDS011;11470;20.968;105.834;2023-07-31T01:32:20;11.18;;;7.00;;
22606;SDS011;11470;20.968;105.834;2023-07-31T01:37:28;19.65;;;13.20;;
22606;SDS011;11470;20.968;105.834;2023-07-31T01:42:34;13.40;;;9.43;;
22606;SDS011;11470;20.968;105.834;2023-07-31T01:47:41;9.30;;;6.78;;
22606;SDS011;11470;20.968;105.834;2023-07-31T01:52:47;17.40;;;11.57;;
22606;SDS011;11470;20.968;105.834;2023-07-31T01:57:54;14.73;;;10.15;;
22606;SDS011;11470;20.968;105.834;2023-07-31T02:03:00;12.25;;;9.43;;
22606;SDS011;11470;20.968;105.834;2023-07-31T02:08:06;20.40;;;14.35;;
22606;SDS011;11470;20.968;105.834;2023-07-31T02:13:12;16.73;;;10.80;;
22606;SDS011;11470;20.968;105.834;2023-07-31T02:18:19;12.18;;;7.90;;
22606;SDS011;11470;20.968;105.834;2023-07-31T02:23:26;11.23;;;8.38;;
22606;SDS011;11470;20.968;105.834;2023-07-31T02:28:33;13.43;;;10.65;;
22606;SDS011;11470;20.968;105.834;2023-07-31T02:33:39;13.05;;;7.93;;
22606;SDS011;11470;20.968;105.834;2023-07-31T02:38:45;7.15;;;6.45;;
22606;SDS011;11470;20.968;105.834;2023-07-31T02:43:51;16.83;;;9.43;;
22606;SDS011;11470;20.968;105.834;2023-07-31T02:48:58;12.15;;;8.35;;
22606;SDS011;11470;20.968;105.834;2023-07-31T02:54:04;11.27;;;8.43;;
22606;SDS011;11470;20.968;105.834;2023-07-31T02:59:11;11.27;;;7.65;;
22606;SDS011;11470;20.968;105.834;2023-07-31T03:04:16;14.43;;;10.00;;
22606;SDS011;11470;20.968;105.834;2023-07-31T03:09:23;9.55;;;7.00;;
22606;SDS011;11470;20.968;105.834;2023-07-31T03:14:29;12.75;;;9.57;;
22606;SDS011;11470;20.968;105.834;2023-07-31T03:19:39;16.15;;;9.82;;
22606;SDS011;11470;20.968;105.834;2023-07-31T03:24:45;9.55;;;7.10;;
22606;SDS011;11470;20.968;105.834;2023-07-31T03:29:57;13.70;;;8.70;;
22606;SDS011;11470;20.968;105.834;2023-07-31T03:35:05;19.92;;;8.75;;
22606;SDS011;11470;20.968;105.834;2023-07-31T03:40:13;10.73;;;8.20;;
22606;SDS011;11470;20.968;105.834;2023-07-31T03:45:18;11.40;;;7.35;;
22606;SDS011;11470;20.968;105.834;2023-07-31T03:50:25;14.85;;;10.63;;
22606;SDS011;11470;20.968;105.834;2023-07-31T03:55:31;11.45;;;7.32;;
22606;SDS011;11470;20.968;105.834;2023-07-31T04:00:39;10.32;;;8.40;;
22606;SDS011;11470;20.968;105.834;2023-07-31T04:05:45;12.18;;;8.52;;
22606;SDS011;11470;20.968;105.834;2023-07-31T04:10:52;11.82;;;7.60;;
22606;SDS011;11470;20.968;105.834;2023-07-31T04:15:58;40.92;;;20.50;;
22606;SDS011;11470;20.968;105.834;2023-07-31T04:21:04;10.50;;;7.97;;
22606;SDS011;11470;20.968;105.834;2023-07-31T04:26:10;23.70;;;9.95;;
22606;SDS011;11470;20.968;105.834;2023-07-31T04:31:16;29.67;;;11.73;;
22606;SDS011;11470;20.968;105.834;2023-07-31T04:36:23;10.27;;;8.45;;
22606;SDS011;11470;20.968;105.834;2023-07-31T04:41:29;11.10;;;8.55;;
22606;SDS011;11470;20.968;105.834;2023-07-31T04:46:36;11.82;;;8.05;;
22606;SDS011;11470;20.968;105.834;2023-07-31T04:51:42;11.20;;;9.07;;
22606;SDS011;11470;20.968;105.834;2023-07-31T04:56:49;9.15;;;8.15;;
22606;SDS011;11470;20.968;105.834;2023-07-31T05:01:56;10.70;;;8.35;;
22606;SDS011;11470;20.968;105.834;2023-07-31T05:07:02;14.18;;;8.10;;
22606;SDS011;11470;20.968;105.834;2023-07-31T05:12:09;16.17;;;7.90;;
22606;SDS011;11470;20.968;105.834;2023-07-31T05:17:15;10.35;;;7.90;;
22606;SDS011;11470;20.968;105.834;2023-07-31T05:22:22;8.70;;;6.68;;
22606;SDS011;11470;20.968;105.834;2023-07-31T05:27:29;10.80;;;6.95;;
22606;SDS011;11470;20.968;105.834;2023-07-31T05:32:35;10.65;;;7.15;;
22606;SDS011;11470;20.968;105.834;2023-07-31T05:37:42;9.35;;;6.18;;
22606;SDS011;11470;20.968;105.834;2023-07-31T05:42:48;6.88;;;5.68;;
22606;SDS011;11470;20.968;105.834;2023-07-31T05:47:54;8.40;;;6.28;;
22606;SDS011;11470;20.968;105.834;2023-07-31T05:53:00;8.38;;;5.68;;
22606;SDS011;11470;20.968;105.834;2023-07-31T05:58:06;11.80;;;9.30;;
22606;SDS011;11470;20.968;105.834;2023-07-31T06:03:13;16.85;;;10.93;;
22606;SDS011;11470;20.968;105.834;2023-07-31T06:08:20;10.30;;;8.63;;
22606;SDS011;11470;20.968;105.834;2023-07-31T06:13:26;15.05;;;9.80;;
22606;SDS011;11470;20.968;105.834;2023-07-31T06:18:35;11.05;;;9.85;;
22606;SDS011;11470;20.968;105.834;2023-07-31T06:23:41;12.07;;;8.77;;
22606;SDS011;11470;20.968;105.834;2023-07-31T06:28:47;14.20;;;10.73;;
22606;SDS011;11470;20.968;105.834;2023-07-31T06:33:53;14.88;;;10.18;;
22606;SDS011;11470;20.968;105.834;2023-07-31T06:39:00;7.65;;;6.30;;
22606;SDS011;11470;20.968;105.834;2023-07-31T06:44:05;11.40;;;8.10;;
22606;SDS011;11470;20.968;105.834;2023-07-31T06:49:12;10.13;;;6.63;;
22606;SDS011;11470;20.968;105.834;2023-07-31T06:54:19;10.25;;;8.13;;
22606;SDS011;11470;20.968;105.834;2023-07-31T06:59:25;11.23;;;9.00;;
22606;SDS011;11470;20.968;105.834;2023-07-31T07:04:31;10.25;;;7.90;;
22606;SDS011;11470;20.968;105.834;2023-07-31T07:09:37;9.80;;;7.38;;
22606;SDS011;11470;20.968;105.834;2023-07-31T07:14:43;8.35;;;5.47;;
22606;SDS011;11470;20.968;105.834;2023-07-31T07:19:53;9.48;;;4.82;;
22606;SDS011;11470;20.968;105.834;2023-07-31T07:25:00;8.63;;;2.75;;
22606;SDS011;11470;20.968;105.834;2023-07-31T07:30:09;5.50;;;2.90;;
22606;SDS011;11470;20.968;105.834;2023-07-31T07:35:16;4.00;;;3.53;;
22606;SDS011;11470;20.968;105.834;2023-07-31T07:40:22;4.85;;;3.42;;
22606;SDS011;11470;20.968;105.834;2023-07-31T07:45:28;4.68;;;2.75;;
22606;SDS011;11470;20.968;105.834;2023-07-31T07:50:35;4.00;;;1.27;;
22606;SDS011;11470;20.968;105.834;2023-07-31T07:55:43;7.70;;;3.05;;
22606;SDS011;11470;20.968;105.834;2023-07-31T08:00:53;3.58;;;2.30;;
22606;SDS011;11470;20.968;105.834;2023-07-31T08:06:02;3.75;;;2.05;;
22606;SDS011;11470;20.968;105.834;2023-07-31T08:11:08;5.43;;;3.13;;
22606;SDS011;11470;20.968;105.834;2023-07-31T08:16:14;4.30;;;3.50;;
22606;SDS011;11470;20.968;105.834;2023-07-31T08:21:21;5.30;;;3.55;;
22606;SDS011;11470;20.968;105.834;2023-07-31T08:26:31;4.40;;;2.85;;
22606;SDS011;11470;20.968;105.834;2023-07-31T08:31:40;8.38;;;4.25;;
22606;SDS011;11470;20.968;105.834;2023-07-31T08:36:48;4.90;;;2.42;;
22606;SDS011;11470;20.968;105.834;2023-07-31T08:41:57;9.50;;;4.22;;
22606;SDS011;11470;20.968;105.834;2023-07-31T08:47:04;4.40;;;3.90;;
22606;SDS011;11470;20.968;105.834;2023-07-31T08:52:11;4.57;;;2.88;;
22606;SDS011;11470;20.968;105.834;2023-07-31T08:57:17;3.60;;;3.00;;
22606;SDS011;11470;20.968;105.834;2023-07-31T09:02:24;4.93;;;3.47;;
22606;SDS011;11470;20.968;105.834;2023-07-31T09:07:36;3.78;;;3.10;;
22606;SDS011;11470;20.968;105.834;2023-07-31T09:12:43;4.35;;;2.85;;
22606;SDS011;11470;20.968;105.834;2023-07-31T09:17:58;5.15;;;2.97;;
22606;SDS011;11470;20.968;105.834;2023-07-31T09:23:12;3.58;;;3.15;;
22606;SDS011;11470;20.968;105.834;2023-07-31T09:28:20;6.15;;;3.90;;
22606;SDS011;11470;20.968;105.834;2023-07-31T09:33:39;6.38;;;3.67;;
22606;SDS011;11470;20.968;105.834;2023-07-31T09:39:03;8.95;;;4.88;;
22606;SDS011;11470;20.968;105.834;2023-07-31T09:44:10;4.07;;;3.65;;
22606;SDS011;11470;20.968;105.834;2023-07-31T09:49:17;8.75;;;3.78;;
22606;SDS011;11470;20.968;105.834;2023-07-31T09:54:23;3.83;;;3.30;;
22606;SDS011;11470;20.968;105.834;2023-07-31T09:59:29;4.63;;;3.88;;
22606;SDS011;11470;20.968;105.834;2023-07-31T10:04:35;3.92;;;3.10;;
22606;SDS011;11470;20.968;105.834;2023-07-31T10:09:42;4.85;;;3.35;;
22606;SDS011;11470;20.968;105.834;2023-07-31T10:14:51;3.65;;;3.20;;
22606;SDS011;11470;20.968;105.834;2023-07-31T10:19:59;4.20;;;3.05;;
22606;SDS011;11470;20.968;105.834;2023-07-31T10:25:09;4.30;;;3.20;;
22606;SDS011;11470;20.968;105.834;2023-07-31T10:30:16;5.38;;;3.15;;
22606;SDS011;11470;20.968;105.834;2023-07-31T10:35:25;5.38;;;3.30;;
22606;SDS011;11470;20.968;105.834;2023-07-31T10:40:32;4.75;;;2.88;;
22606;SDS011;11470;20.968;105.834;2023-07-31T10:45:40;4.20;;;3.05;;
22606;SDS011;11470;20.968;105.834;2023-07-31T10:50:56;3.55;;;3.15;;
22606;SDS011;11470;20.968;105.834;2023-07-31T10:56:07;6.22;;;3.97;;
22606;SDS011;11470;20.968;105.834;2023-07-31T11:01:17;7.00;;;4.07;;
22606;SDS011;11470;20.968;105.834;2023-07-31T11:06:29;9.15;;;4.03;;
22606;SDS011;11470;20.968;105.834;2023-07-31T11:11:35;4.90;;;3.05;;
22606;SDS011;11470;20.968;105.834;2023-07-31T11:16:42;4.97;;;3.13;;
22606;SDS011;11470;20.968;105.834;2023-07-31T11:21:54;7.03;;;3.65;;
22606;SDS011;11470;20.968;105.834;2023-07-31T11:27:07;7.10;;;3.75;;
22606;SDS011;11470;20.968;105.834;2023-07-31T11:32:16;6.93;;;4.72;;
22606;SDS011;11470;20.968;105.834;2023-07-31T11:37:23;6.35;;;3.65;;
22606;SDS011;11470;20.968;105.834;2023-07-31T11:42:43;6.65;;;4.32;;
22606;SDS011;11470;20.968;105.834;2023-07-31T11:47:50;7.97;;;4.22;;
22606;SDS011;11470;20.968;105.834;2023-07-31T11:52:57;7.07;;;3.50;;
22606;SDS011;11470;20.968;105.834;2023-07-31T11:58:06;11.70;;;5.50;;
22606;SDS011;11470;20.968;105.834;2023-07-31T12:03:13;9.25;;;4.82;;
22606;SDS011;11470;20.968;105.834;2023-07-31T12:08:23;10.75;;;5.30;;
22606;SDS011;11470;20.968;105.834;2023-07-31T12:13:30;9.55;;;5.68;;
22606;SDS011;11470;20.968;105.834;2023-07-31T12:18:38;10.05;;;5.78;;
22606;SDS011;11470;20.968;105.834;2023-07-31T12:23:44;12.45;;;6.90;;
22606;SDS011;11470;20.968;105.834;2023-07-31T12:28:54;11.75;;;6.80;;
22606;SDS011;11470;20.968;105.834;2023-07-31T12:34:00;10.82;;;6.63;;
22606;SDS011;11470;20.968;105.834;2023-07-31T12:39:07;13.13;;;6.60;;
22606;SDS011;11470;20.968;105.834;2023-07-31T12:44:17;13.05;;;7.72;;
22606;SDS011;11470;20.968;105.834;2023-07-31T12:49:34;12.48;;;7.35;;
22606;SDS011;11470;20.968;105.834;2023-07-31T12:54:41;10.13;;;7.15;;
22606;SDS011;11470;20.968;105.834;2023-07-31T12:59:47;13.35;;;7.43;;
22606;SDS011;11470;20.968;105.834;2023-07-31T13:04:53;10.18;;;6.68;;
22606;SDS011;11470;20.968;105.834;2023-07-31T13:10:01;11.80;;;8.35;;
22606;SDS011;11470;20.968;105.834;2023-07-31T13:15:07;14.50;;;8.63;;
22606;SDS011;11470;20.968;105.834;2023-07-31T13:20:14;14.25;;;9.02;;
22606;SDS011;11470;20.968;105.834;2023-07-31T13:25:20;13.40;;;7.57;;
22606;SDS011;11470;20.968;105.834;2023-07-31T13:30:27;13.32;;;9.75;;
22606;SDS011;11470;20.968;105.834;2023-07-31T13:35:34;14.10;;;8.55;;
22606;SDS011;11470;20.968;105.834;2023-07-31T13:40:41;13.43;;;7.97;;
22606;SDS011;11470;20.968;105.834;2023-07-31T13:45:47;12.50;;;7.90;;
22606;SDS011;11470;20.968;105.834;2023-07-31T13:51:02;15.40;;;9.50;;
22606;SDS011;11470;20.968;105.834;2023-07-31T13:56:08;13.25;;;10.50;;
22606;SDS011;11470;20.968;105.834;2023-07-31T14:01:15;15.63;;;10.95;;
22606;SDS011;11470;20.968;105.834;2023-07-31T14:06:28;12.50;;;10.23;;
22606;SDS011;11470;20.968;105.834;2023-07-31T14:11:41;12.25;;;8.13;;
22606;SDS011;11470;20.968;105.834;2023-07-31T14:16:47;12.93;;;8.38;;
22606;SDS011;11470;20.968;105.834;2023-07-31T14:21:53;10.65;;;7.57;;
22606;SDS011;11470;20.968;105.834;2023-07-31T14:27:13;11.00;;;8.68;;
22606;SDS011;11470;20.968;105.834;2023-07-31T14:32:21;12.40;;;7.88;;
22606;SDS011;11470;20.968;105.834;2023-07-31T14:38:03;11.30;;;7.18;;
22606;SDS011;11470;20.968;105.834;2023-07-31T14:43:06;10.60;;;8.45;;
22606;SDS011;11470;20.968;105.834;2023-07-31T14:48:16;12.68;;;7.50;;
22606;SDS011;11470;20.968;105.834;2023-07-31T14:53:23;12.57;;;8.95;;
22606;SDS011;11470;20.968;105.834;2023-07-31T14:58:31;9.85;;;6.78;;
22606;SDS011;11470;20.968;105.834;2023-07-31T15:03:38;12.23;;;9.18;;
22606;SDS011;11470;20.968;105.834;2023-07-31T15:08:45;11.95;;;7.50;;
22606;SDS011;11470;20.968;105.834;2023-07-31T15:13:51;10.82;;;7.95;;
22606;SDS011;11470;20.968;105.834;2023-07-31T15:18:59;15.30;;;10.27;;
22606;SDS011;11470;20.968;105.834;2023-07-31T15:24:05;14.27;;;8.75;;
22606;SDS011;11470;20.968;105.834;2023-07-31T15:29:12;17.52;;;12.10;;
22606;SDS011;11470;20.968;105.834;2023-07-31T15:34:23;14.65;;;10.82;;
22606;SDS011;11470;20.968;105.834;2023-07-31T15:39:31;13.88;;;9.27;;
22606;SDS011;11470;20.968;105.834;2023-07-31T15:44:40;20.75;;;15.00;;
22606;SDS011;11470;20.968;105.834;2023-07-31T15:49:48;21.42;;;16.80;;
22606;SDS011;11470;20.968;105.834;2023-07-31T15:55:10;20.77;;;17.70;;
22606;SDS011;11470;20.968;105.834;2023-07-31T16:00:20;25.42;;;18.48;;
22606;SDS011;11470;20.968;105.834;2023-07-31T16:05:32;29.35;;;22.55;;
22606;SDS011;11470;20.968;105.834;2023-07-31T16:10:39;24.27;;;20.23;;
22606;SDS011;11470;20.968;105.834;2023-07-31T16:15:46;15.75;;;13.30;;
22606;SDS011;11470;20.968;105.834;2023-07-31T16:20:53;31.55;;;23.27;;
22606;SDS011;11470;20.968;105.834;2023-07-31T16:25:59;37.13;;;25.45;;
22606;SDS011;11470;20.968;105.834;2023-07-31T16:31:06;22.23;;;16.42;;
22606;SDS011;11470;20.968;105.834;2023-07-31T16:36:13;21.92;;;17.10;;
22606;SDS011;11470;20.968;105.834;2023-07-31T16:41:23;17.55;;;14.93;;
22606;SDS011;11470;20.968;105.834;2023-07-31T16:46:33;14.52;;;10.98;;
22606;SDS011;11470;20.968;105.834;2023-07-31T16:51:40;14.80;;;11.50;;
22606;SDS011;11470;20.968;105.834;2023-07-31T16:56:47;19.83;;;15.88;;
22606;SDS011;11470;20.968;105.834;2023-07-31T17:02:04;19.23;;;14.23;;
22606;SDS011;11470;20.968;105.834;2023-07-31T17:07:14;17.30;;;13.43;;
22606;SDS011;11470;20.968;105.834;2023-07-31T17:12:21;23.33;;;15.13;;
22606;SDS011;11470;20.968;105.834;2023-07-31T17:17:27;20.13;;;16.45;;
22606;SDS011;11470;20.968;105.834;2023-07-31T17:22:34;32.10;;;23.90;;
22606;SDS011;11470;20.968;105.834;2023-07-31T17:27:50;30.35;;;22.60;;
22606;SDS011;11470;20.968;105.834;2023-07-31T17:32:59;26.17;;;19.80;;
22606;SDS011;11470;20.968;105.834;2023-07-31T17:38:06;29.38;;;24.58;;
22606;SDS011;11470;20.968;105.834;2023-07-31T17:43:13;31.23;;;23.45;;
22606;SDS011;11470;20.968;105.834;2023-07-31T17:48:20;25.48;;;20.67;;
22606;SDS011;11470;20.968;105.834;2023-07-31T17:53:26;29.40;;;24.25;;
22606;SDS011;11470;20.968;105.834;2023-07-31T17:58:34;35.80;;;24.85;;
22606;SDS011;11470;20.968;105.834;2023-07-31T18:03:40;28.30;;;22.83;;
22606;SDS011;11470;20.968;105.834;2023-07-31T18:08:47;30.70;;;24.88;;
22606;SDS011;11470;20.968;105.834;2023-07-31T18:13:54;28.88;;;21.83;;
22606;SDS011;11470;20.968;105.834;2023-07-31T18:19:01;20.83;;;15.85;;
22606;SDS011;11470;20.968;105.834;2023-07-31T18:24:07;22.08;;;17.73;;
22606;SDS011;11470;20.968;105.834;2023-07-31T18:29:14;33.92;;;22.83;;
22606;SDS011;11470;20.968;105.834;2023-07-31T18:34:20;20.63;;;17.25;;
22606;SDS011;11470;20.968;105.834;2023-07-31T18:39:28;21.33;;;17.65;;
22606;SDS011;11470;20.968;105.834;2023-07-31T18:44:34;31.35;;;22.85;;
22606;SDS011;11470;20.968;105.834;2023-07-31T18:49:41;24.02;;;19.33;;
22606;SDS011;11470;20.968;105.834;2023-07-31T18:54:48;39.47;;;29.05;;
22606;SDS011;11470;20.968;105.834;2023-07-31T18:59:54;47.00;;;33.15;;
22606;SDS011;11470;20.968;105.834;2023-07-31T19:05:00;38.20;;;29.85;;
22606;SDS011;11470;20.968;105.834;2023-07-31T19:10:08;31.45;;;23.23;;
22606;SDS011;11470;20.968;105.834;2023-07-31T19:15:19;32.47;;;24.23;;
22606;SDS011;11470;20.968;105.834;2023-07-31T19:20:25;31.25;;;23.92;;
22606;SDS011;11470;20.968;105.834;2023-07-31T19:25:32;28.35;;;21.83;;
22606;SDS011;11470;20.968;105.834;2023-07-31T19:30:39;43.15;;;31.63;;
22606;SDS011;11470;20.968;105.834;2023-07-31T19:35:59;33.60;;;24.48;;
22606;SDS011;11470;20.968;105.834;2023-07-31T19:41:06;39.10;;;29.95;;
22606;SDS011;11470;20.968;105.834;2023-07-31T19:46:13;40.70;;;27.48;;
22606;SDS011;11470;20.968;105.834;2023-07-31T19:51:20;40.53;;;28.80;;
22606;SDS011;11470;20.968;105.834;2023-07-31T19:56:26;31.40;;;23.45;;
22606;SDS011;11470;20.968;105.834;2023-07-31T20:01:33;29.75;;;21.48;;
22606;SDS011;11470;20.968;105.834;2023-07-31T20:06:39;14.40;;;12.23;;
22606;SDS011;11470;20.968;105.834;2023-07-31T20:11:46;17.23;;;13.05;;
22606;SDS011;11470;20.968;105.834;2023-07-31T20:16:56;20.42;;;14.38;;
22606;SDS011;11470;20.968;105.834;2023-07-31T20:22:03;14.68;;;12.70;;
22606;SDS011;11470;20.968;105.834;2023-07-31T20:27:10;13.90;;;11.63;;
22606;SDS011;11470;20.968;105.834;2023-07-31T20:32:16;16.55;;;11.73;;
22606;SDS011;11470;20.968;105.834;2023-07-31T20:37:23;11.40;;;9.30;;
22606;SDS011;11470;20.968;105.834;2023-07-31T20:42:30;10.80;;;9.70;;
22606;SDS011;11470;20.968;105.834;2023-07-31T20:47:37;12.65;;;9.20;;
22606;SDS011;11470;20.968;105.834;2023-07-31T20:52:43;9.52;;;7.53;;
22606;SDS011;11470;20.968;105.834;2023-07-31T20:57:50;9.10;;;6.95;;
22606;SDS011;11470;20.968;105.834;2023-07-31T21:02:57;7.40;;;6.65;;
22606;SDS011;11470;20.968;105.834;2023-07-31T21:08:04;7.70;;;7.00;;
22606;SDS011;11470;20.968;105.834;2023-07-31T21:13:12;8.38;;;6.55;;
22606;SDS011;11470;20.968;105.834;2023-07-31T21:18:18;6.63;;;4.43;;
22606;SDS011;11470;20.968;105.834;2023-07-31T21:23:25;6.63;;;5.93;;
22606;SDS011;11470;20.968;105.834;2023-07-31T21:28:32;6.63;;;5.75;;
22606;SDS011;11470;20.968;105.834;2023-07-31T21:33:38;4.97;;;4.55;;
22606;SDS011;11470;20.968;105.834;2023-07-31T21:38:46;5.07;;;2.67;;
22606;SDS011;11470;20.968;105.834;2023-07-31T21:43:52;4.32;;;3.83;;
22606;SDS011;11470;20.968;105.834;2023-07-31T21:48:59;4.22;;;3.85;;
22606;SDS011;11470;20.968;105.834;2023-07-31T21:54:06;5.18;;;4.38;;
22606;SDS011;11470;20.968;105.834;2023-07-31T21:59:13;3.25;;;2.95;;
22606;SDS011;11470;20.968;105.834;2023-07-31T22:04:20;5.22;;;4.80;;
22606;SDS011;11470;20.968;105.834;2023-07-31T22:09:27;5.15;;;4.18;;
22606;SDS011;11470;20.968;105.834;2023-07-31T22:14:33;4.47;;;4.00;;
22606;SDS011;11470;20.968;105.834;2023-07-31T22:19:40;4.63;;;4.18;;
22606;SDS011;11470;20.968;105.834;2023-07-31T22:24:47;4.18;;;3.65;;
22606;SDS011;11470;20.968;105.834;2023-07-31T22:29:54;4.32;;;3.58;;
22606;SDS011;11470;20.968;105.834;2023-07-31T22:35:00;3.78;;;3.15;;
22606;SDS011;11470;20.968;105.834;2023-07-31T22:40:07;4.53;;;3.53;;
22606;SDS011;11470;20.968;105.834;2023-07-31T22:45:14;4.15;;;3.60;;
22606;SDS011;11470;20.968;105.834;2023-07-31T22:50:21;4.20;;;3.80;;
22606;SDS011;11470;20.968;105.834;2023-07-31T22:55:29;4.80;;;3.97;;
22606;SDS011;11470;20.968;105.834;2023-07-31T23:00:36;5.07;;;4.28;;
22606;SDS011;11470;20.968;105.834;2023-07-31T23:05:43;4.50;;;4.10;;
22606;SDS011;11470;20.968;105.834;2023-07-31T23:10:50;4.95;;;4.00;;
22606;SDS011;11470;20.968;105.834;2023-07-31T23:15:57;3.63;;;3.33;;
22606;SDS011;11470;20.968;105.834;2023-07-31T23:21:03;5.32;;;4.07;;
22606;SDS011;11470;20.968;105.834;2023-07-31T23:26:10;5.30;;;4.80;;
22606;SDS011;11470;20.968;105.834;2023-07-31T23:31:16;7.20;;;5.65;;
22606;SDS011;11470;20.968;105.834;2023-07-31T23:36:23;6.63;;;5.93;;
22606;SDS011;11470;20.968;105.834;2023-07-31T23:41:30;10.50;;;6.68;;
22606;SDS011;11470;20.968;105.834;2023-07-31T23:46:36;16.38;;;14.13;;
22606;SDS011;11470;20.968;105.834;2023-07-31T23:51:50;13.65;;;11.38;;
22606;SDS011;11470;20.968;105.834;2023-07-31T23:56:56;13.10;;;8.75;;
